Tripoli, Wisconsin
Current Conditions -  °F | °C
As of 11:15 AM on Thursday 23 Oct 2014 (Local Time) from KTKV Reporting Station
Moderate Rain Moderate Rain  
Wind Chill: 43°   Ceiling: 700
Heat Index: 43°   Visibility: 2mi
Dew Point: 41°   Wind: 0mph
Humidity: 93%   Direction: NA
Pressure: 30.06"   Gusts: NA
Location:  45.56°N, 89.99°W
Report Text: KTKV 231615Z AUTO 00000KT 2SM RA OVC007 06/05 A3006 RMK AO2 P0001 T00600050
Loading
Personal Weather Stations






























Interactive Weather Map
Tropical Storm Tracking
New forecast layout! Learn more

10-Day Weather Forecast

Advertisements
Track Severe Weather on mobile